createdAt,value
2022-12-25T00:00:41.833Z,94387.31
2022-12-25T00:03:08.709Z,94385.44
2022-12-25T00:05:38.774Z,94387.69
2022-12-25T00:08:06.608Z,94394.31
2022-12-25T00:10:33.701Z,94389.28
2022-12-25T00:13:00.219Z,94389.78
2022-12-25T00:15:26.790Z,94376.94
2022-12-25T00:17:53.303Z,94380.53
2022-12-25T00:20:19.789Z,94384.34
2022-12-25T00:22:46.449Z,94382.47
2022-12-25T00:25:12.950Z,94369.63
2022-12-25T00:27:39.443Z,94367.34
2022-12-25T00:30:07.888Z,94360.28
2022-12-25T00:32:37.577Z,94366.19
2022-12-25T00:35:05.140Z,94361.94
2022-12-25T00:37:31.666Z,94368.94
2022-12-25T00:39:58.156Z,94365.44
2022-12-25T00:42:26.887Z,94371.97
2022-12-25T00:44:53.455Z,94382.78
2022-12-25T00:47:20.028Z,94375.97
2022-12-25T00:49:46.759Z,94365.91
2022-12-25T00:52:13.314Z,94378.09
2022-12-25T00:54:39.851Z,94380.38
2022-12-25T00:57:06.374Z,94365.63
2022-12-25T00:59:34.119Z,94367.59
2022-12-25T01:02:21.390Z,94368.41
2022-12-25T01:04:48.383Z,94381.16
2022-12-25T01:07:16.869Z,94375.38
2022-12-25T01:10:03.157Z,94369.88
2022-12-25T01:12:30.546Z,94364.78
2022-12-25T01:14:57.097Z,94372.59
2022-12-25T01:17:23.641Z,94368.72
2022-12-25T01:19:50.302Z,94375.41
2022-12-25T01:22:16.823Z,94380.34
2022-12-25T01:24:44.419Z,94382.34
2022-12-25T01:27:11.624Z,94374.63
2022-12-25T01:29:38.634Z,94383.66
2022-12-25T01:32:06.160Z,94375.03
2022-12-25T01:34:32.759Z,94389.00
2022-12-25T01:36:59.300Z,94384.38
2022-12-25T01:39:26.878Z,94392.88
2022-12-25T01:41:53.370Z,94382.81
2022-12-25T01:44:19.895Z,94383.28
2022-12-25T01:46:46.377Z,94385.13
2022-12-25T01:49:22.482Z,94393.63
2022-12-25T01:52:00.672Z,94397.53
2022-12-25T01:54:35.080Z,94394.41
2022-12-25T01:57:06.596Z,94392.50
2022-12-25T01:59:33.246Z,94392.09
2022-12-25T02:02:00.339Z,94392.00
2022-12-25T02:04:38.741Z,94398.16
2022-12-25T02:07:16.840Z,94395.81
2022-12-25T02:09:44.815Z,94402.53
2022-12-25T02:12:18.429Z,94395.56
2022-12-25T02:14:45.406Z,94391.34
2022-12-25T02:17:27.373Z,94389.00
2022-12-25T02:20:03.783Z,94382.72
2022-12-25T02:22:39.534Z,94370.28
2022-12-25T02:25:32.058Z,94383.53
2022-12-25T02:27:58.486Z,94380.38
2022-12-25T02:30:25.363Z,94379.63
2022-12-25T02:33:20.361Z,94376.59
2022-12-25T02:35:51.909Z,94367.97
2022-12-25T02:38:33.050Z,94381.03
2022-12-25T02:41:09.838Z,94382.72
2022-12-25T02:44:01.650Z,94378.34
2022-12-25T02:46:48.560Z,94381.44
2022-12-25T02:49:41.826Z,94384.63
2022-12-25T02:52:42.351Z,94377.91
2022-12-25T02:55:34.749Z,94376.00
2022-12-25T02:58:25.573Z,94367.06
2022-12-25T03:01:23.394Z,94358.16
2022-12-25T03:04:13.323Z,94357.44
2022-12-25T03:06:46.395Z,94356.75
2022-12-25T03:09:40.127Z,94366.56
2022-12-25T03:12:48.455Z,94366.13
2022-12-25T03:15:36.095Z,94370.69
2022-12-25T03:18:06.895Z,94362.91
2022-12-25T03:20:52.365Z,94360.59
2022-12-25T03:23:40.227Z,94349.34
2022-12-25T03:26:26.627Z,94343.16
2022-12-25T03:28:55.528Z,94345.09
2022-12-25T03:31:26.512Z,94340.84
2022-12-25T03:34:45.666Z,94341.31
2022-12-25T03:37:36.594Z,94343.91
2022-12-25T03:41:12.895Z,94326.69
2022-12-25T03:44:11.767Z,94325.09
2022-12-25T03:47:14.773Z,94330.94
2022-12-25T03:50:23.270Z,94317.47
2022-12-25T03:53:11.333Z,94321.81
2022-12-25T03:55:59.704Z,94307.72
2022-12-25T03:58:46.273Z,94302.97
2022-12-25T04:01:32.700Z,94304.97
2022-12-25T04:04:17.912Z,94311.56
2022-12-25T04:07:02.960Z,94317.00
2022-12-25T04:09:48.096Z,94322.88
2022-12-25T04:12:33.299Z,94333.03
2022-12-25T04:15:18.250Z,94327.94
2022-12-25T04:18:03.170Z,94327.19
2022-12-25T04:20:48.166Z,94325.66
2022-12-25T04:23:32.925Z,94329.13
2022-12-25T04:26:18.402Z,94324.09
2022-12-25T04:29:03.821Z,94323.28
2022-12-25T04:31:48.662Z,94326.38
2022-12-25T04:34:33.992Z,94311.25
2022-12-25T04:37:00.539Z,94320.19
2022-12-25T04:39:27.054Z,94324.09
2022-12-25T04:41:53.593Z,94312.03
2022-12-25T04:44:20.085Z,94305.84
2022-12-25T04:46:46.717Z,94310.09
2022-12-25T04:49:15.364Z,94305.44
2022-12-25T04:51:41.946Z,94307.00
2022-12-25T04:54:08.529Z,94309.34
2022-12-25T04:56:40.065Z,94296.19
2022-12-25T04:59:10.153Z,94298.41
2022-12-25T05:01:36.772Z,94304.97
2022-12-25T05:04:03.440Z,94298.38
2022-12-25T05:06:30.010Z,94301.09
2022-12-25T05:08:56.528Z,94300.00
2022-12-25T05:11:23.177Z,94292.84
2022-12-25T05:13:49.786Z,94292.94
2022-12-25T05:16:19.785Z,94287.91
2022-12-25T05:18:49.342Z,94288.25
2022-12-25T05:21:15.891Z,94285.53
2022-12-25T05:23:48.738Z,94284.69
2022-12-25T05:26:18.240Z,94275.38
2022-12-25T05:28:44.930Z,94278.56
2022-12-25T05:31:11.640Z,94278.91
2022-12-25T05:33:38.234Z,94276.22
2022-12-25T05:36:07.180Z,94263.00
2022-12-25T05:38:34.073Z,94275.84
2022-12-25T05:41:01.284Z,94266.88
2022-12-25T05:43:28.549Z,94264.19
2022-12-25T05:45:55.163Z,94267.72
2022-12-25T05:48:21.671Z,94258.41
2022-12-25T05:50:48.269Z,94252.47
2022-12-25T05:53:17.278Z,94264.59
2022-12-25T05:55:43.791Z,94262.28
2022-12-25T05:58:11.858Z,94257.91
2022-12-25T06:00:39.055Z,94251.63
2022-12-25T06:03:05.707Z,94256.31
2022-12-25T06:05:32.615Z,94251.63
2022-12-25T06:07:59.124Z,94258.22
2022-12-25T06:10:25.657Z,94251.16
2022-12-25T06:12:52.133Z,94253.09
2022-12-25T06:15:18.721Z,94251.44
2022-12-25T06:17:45.297Z,94247.53
2022-12-25T06:20:11.862Z,94251.34
2022-12-25T06:22:38.360Z,94253.94
2022-12-25T06:25:05.322Z,94251.56
2022-12-25T06:27:31.833Z,94262.38
2022-12-25T06:29:58.404Z,94252.28
2022-12-25T06:32:24.908Z,94256.06
2022-12-25T06:34:51.488Z,94260.69
2022-12-25T06:37:18.031Z,94259.16
2022-12-25T06:39:44.571Z,94263.81
2022-12-25T06:42:11.064Z,94256.47
2022-12-25T06:44:38.071Z,94261.50
2022-12-25T06:47:04.694Z,94259.13
2022-12-25T06:49:31.279Z,94255.63
2022-12-25T06:51:57.812Z,94258.06
2022-12-25T06:54:24.362Z,94254.66
2022-12-25T06:56:51.128Z,94262.34
2022-12-25T06:59:17.669Z,94262.97
2022-12-25T07:01:53.540Z,94264.41
2022-12-25T07:04:22.998Z,94267.78
2022-12-25T07:06:49.481Z,94272.41
2022-12-25T07:09:16.052Z,94269.69
2022-12-25T07:11:43.635Z,94267.31
2022-12-25T07:14:23.743Z,94269.59
2022-12-25T07:16:51.614Z,94270.22
2022-12-25T07:19:19.184Z,94276.38
2022-12-25T07:21:46.144Z,94277.91
2022-12-25T07:24:18.364Z,94272.09
2022-12-25T07:26:44.905Z,94272.00
2022-12-25T07:29:11.482Z,94272.59
2022-12-25T07:31:38.040Z,94276.47
2022-12-25T07:34:04.605Z,94277.22
2022-12-25T07:36:31.197Z,94262.94
2022-12-25T07:38:57.734Z,94251.31
2022-12-25T07:41:24.440Z,94251.63
2022-12-25T07:43:58.326Z,94252.34
2022-12-25T07:46:25.005Z,94248.84
2022-12-25T07:48:51.878Z,94253.91
2022-12-25T07:51:18.398Z,94254.75
2022-12-25T07:53:45.222Z,94248.06
2022-12-25T07:56:14.447Z,94259.34
2022-12-25T07:58:41.744Z,94251.31
2022-12-25T08:01:14.893Z,94259.44
2022-12-25T08:03:41.658Z,94259.78
2022-12-25T08:06:09.686Z,94262.34
2022-12-25T08:08:37.519Z,94256.19
2022-12-25T08:11:04.471Z,94247.03
2022-12-25T08:13:31.815Z,94249.47
2022-12-25T08:16:00.468Z,94238.31
2022-12-25T08:18:30.091Z,94244.63
2022-12-25T08:20:57.514Z,94247.09
2022-12-25T08:23:24.084Z,94258.09
2022-12-25T08:25:50.583Z,94260.44
2022-12-25T08:28:17.056Z,94263.59
2022-12-25T08:30:43.620Z,94260.44
2022-12-25T08:33:10.223Z,94268.16
2022-12-25T08:35:36.957Z,94254.69
2022-12-25T08:38:03.449Z,94252.16
2022-12-25T08:40:30.012Z,94253.09
2022-12-25T08:42:57.205Z,94241.88
2022-12-25T08:45:24.998Z,94242.13
2022-12-25T08:47:55.545Z,94243.81
2022-12-25T08:50:23.106Z,94239.56
2022-12-25T08:52:50.293Z,94243.13
2022-12-25T08:55:16.863Z,94247.59
2022-12-25T08:57:43.684Z,94254.00
2022-12-25T09:00:10.679Z,94251.75
2022-12-25T09:02:37.366Z,94242.13
2022-12-25T09:05:04.226Z,94238.81
2022-12-25T09:07:30.726Z,94237.59
2022-12-25T09:09:57.277Z,94238.38
2022-12-25T09:12:23.981Z,94236.59
2022-12-25T09:14:50.552Z,94246.75
2022-12-25T09:17:17.064Z,94241.78
2022-12-25T09:19:43.793Z,94242.63
2022-12-25T09:22:10.344Z,94251.63
2022-12-25T09:24:39.138Z,94247.38
2022-12-25T09:27:05.634Z,94251.31
2022-12-25T09:29:32.189Z,94246.69
2022-12-25T09:31:58.690Z,94244.75
2022-12-25T09:34:25.208Z,94235.81
2022-12-25T09:36:51.711Z,94230.75
2022-12-25T09:39:18.232Z,94235.44
2022-12-25T09:42:34.386Z,94237.44
2022-12-25T09:45:10.822Z,94237.88
2022-12-25T09:47:41.787Z,94233.22
2022-12-25T09:50:13.871Z,94233.25
2022-12-25T09:52:48.852Z,94228.59
2022-12-25T09:55:26.727Z,94216.53
2022-12-25T09:58:00.437Z,94219.25
2022-12-25T10:00:38.074Z,94216.13
2022-12-25T10:03:32.887Z,94214.19
2022-12-25T10:06:06.248Z,94210.63
2022-12-25T10:09:04.742Z,94209.09
2022-12-25T10:12:13.030Z,94209.41
2022-12-25T10:15:01.212Z,94205.88
2022-12-25T10:18:07.780Z,94194.16
2022-12-25T10:20:50.897Z,94199.91
2022-12-25T10:23:30.533Z,94192.69
2022-12-25T10:25:57.209Z,94193.41
2022-12-25T10:28:33.147Z,94189.03
2022-12-25T10:31:05.667Z,94188.56
2022-12-25T10:33:32.196Z,94184.94
2022-12-25T10:35:59.495Z,94191.53
2022-12-25T10:38:26.051Z,94189.50
2022-12-25T10:41:07.760Z,94189.91
2022-12-25T10:43:38.716Z,94185.66
2022-12-25T10:46:12.043Z,94179.41
2022-12-25T10:48:42.980Z,94185.69
2022-12-25T10:51:09.606Z,94182.91
2022-12-25T10:53:42.781Z,94185.19
2022-12-25T10:56:18.040Z,94184.31
2022-12-25T10:58:45.065Z,94179.41
2022-12-25T11:01:13.111Z,94171.13
2022-12-25T11:03:43.955Z,94175.66
2022-12-25T11:06:25.746Z,94172.75
2022-12-25T11:08:56.649Z,94168.44
2022-12-25T11:11:24.180Z,94168.72
2022-12-25T11:13:54.685Z,94158.84
2022-12-25T11:16:35.469Z,94158.03
2022-12-25T11:19:02.755Z,94152.47
2022-12-25T11:21:34.782Z,94150.91
2022-12-25T11:24:04.389Z,94151.03
2022-12-25T11:26:52.358Z,94150.56
2022-12-25T11:29:36.508Z,94135.22
2022-12-25T11:32:05.647Z,94129.72
2022-12-25T11:34:45.081Z,94122.16
2022-12-25T11:37:18.236Z,94120.72
2022-12-25T11:39:45.026Z,94116.59
2022-12-25T11:42:17.472Z,94119.66
2022-12-25T11:44:51.884Z,94100.75
2022-12-25T11:47:35.075Z,94094.53
2022-12-25T11:50:25.749Z,94090.19
2022-12-25T11:52:53.410Z,94088.75
2022-12-25T11:55:43.166Z,94089.47
2022-12-25T11:58:34.340Z,94088.25
2022-12-25T12:01:04.830Z,94092.91
2022-12-25T12:03:36.126Z,94085.69
2022-12-25T12:06:30.268Z,94094.97
2022-12-25T12:09:17.438Z,94100.75
2022-12-25T12:11:53.497Z,94098.41
2022-12-25T12:14:39.485Z,94101.34
2022-12-25T12:17:12.275Z,94095.41
2022-12-25T12:19:39.092Z,94087.69
2022-12-25T12:22:05.961Z,94082.47
2022-12-25T12:24:37.990Z,94089.81
2022-12-25T12:27:17.503Z,94093.91
2022-12-25T12:29:47.853Z,94079.19
2022-12-25T12:32:35.257Z,94067.72
2022-12-25T12:35:13.136Z,94063.34
2022-12-25T12:37:41.164Z,94075.13
2022-12-25T12:40:27.697Z,94080.03
2022-12-25T12:42:54.699Z,94067.72
2022-12-25T12:45:28.345Z,94053.03
2022-12-25T12:47:55.428Z,94042.28
2022-12-25T12:50:36.095Z,94049.00
2022-12-25T12:53:24.197Z,94059.03
2022-12-25T12:55:52.607Z,94053.03
2022-12-25T12:58:33.459Z,94048.56
2022-12-25T13:01:18.367Z,94049.38
2022-12-25T13:04:06.408Z,94066.75
2022-12-25T13:06:43.773Z,94068.09
2022-12-25T13:09:28.184Z,94065.94
2022-12-25T13:11:54.795Z,94065.97
2022-12-25T13:14:23.713Z,94066.47
2022-12-25T13:16:53.425Z,94053.56
2022-12-25T13:19:25.898Z,94063.34
2022-12-25T13:21:53.899Z,94063.56
2022-12-25T13:24:26.644Z,94053.31
2022-12-25T13:26:53.776Z,94054.88
2022-12-25T13:29:34.470Z,94053.19
2022-12-25T13:32:03.585Z,94062.50
2022-12-25T13:34:38.340Z,94059.25
2022-12-25T13:37:10.247Z,94068.16
2022-12-25T13:39:39.459Z,94067.75
2022-12-25T13:42:09.381Z,94074.63
2022-12-25T13:44:47.773Z,94063.13
2022-12-25T13:47:17.037Z,94067.06
2022-12-25T13:49:43.740Z,94071.13
2022-12-25T13:52:13.234Z,94072.69
2022-12-25T13:54:40.046Z,94084.53
2022-12-25T13:57:15.317Z,94083.91
2022-12-25T13:59:44.314Z,94076.66
2022-12-25T14:02:22.623Z,94089.91
2022-12-25T14:04:49.202Z,94093.19
2022-12-25T14:07:21.045Z,94098.44
2022-12-25T14:09:52.241Z,94099.69
2022-12-25T14:12:19.867Z,94096.97
2022-12-25T14:14:46.755Z,94102.56
2022-12-25T14:17:13.362Z,94108.16
2022-12-25T14:19:40.051Z,94106.72
2022-12-25T14:22:22.514Z,94107.28
2022-12-25T14:24:49.344Z,94103.13
2022-12-25T14:27:27.960Z,94101.97
2022-12-25T14:29:56.643Z,94099.78
2022-12-25T14:32:27.266Z,94094.72
2022-12-25T14:34:59.542Z,94099.56
2022-12-25T14:37:29.482Z,94100.00
2022-12-25T14:39:57.660Z,94089.94
2022-12-25T14:42:27.910Z,94091.13
2022-12-25T14:44:59.723Z,94097.84
2022-12-25T14:47:27.469Z,94095.56
2022-12-25T14:49:54.629Z,94095.22
2022-12-25T14:52:21.137Z,94106.28
2022-12-25T14:55:01.154Z,94108.69
2022-12-25T14:57:32.114Z,94114.59
2022-12-25T15:00:01.748Z,94115.03
2022-12-25T15:02:40.293Z,94113.13
2022-12-25T15:05:25.153Z,94119.06
2022-12-25T15:07:59.859Z,94125.78
2022-12-25T15:10:59.016Z,94112.91
2022-12-25T15:13:14.530Z,94122.38
2022-12-25T15:15:53.333Z,94114.97
2022-12-25T15:18:22.217Z,94127.50
2022-12-25T15:20:54.876Z,94123.97
2022-12-25T15:23:21.947Z,94132.19
2022-12-25T15:25:50.939Z,94124.78
2022-12-25T15:28:17.448Z,94137.28
2022-12-25T15:30:44.212Z,94143.16
2022-12-25T15:33:14.391Z,94145.09
2022-12-25T15:35:41.274Z,94145.13
2022-12-25T15:38:07.835Z,94151.75
2022-12-25T15:40:34.652Z,94141.63
2022-12-25T15:43:06.365Z,94155.66
2022-12-25T15:45:38.242Z,94156.44
2022-12-25T15:48:04.856Z,94142.00
2022-12-25T15:50:32.687Z,94149.41
2022-12-25T15:52:59.245Z,94150.97
2022-12-25T15:55:25.839Z,94150.56
2022-12-25T15:57:54.537Z,94143.94
2022-12-25T16:00:23.181Z,94147.09
2022-12-25T16:02:50.378Z,94142.00
2022-12-25T16:05:17.050Z,94147.84
2022-12-25T16:07:43.726Z,94145.88
2022-12-25T16:10:14.890Z,94140.44
2022-12-25T16:12:41.520Z,94155.66
2022-12-25T16:15:10.562Z,94150.19
2022-12-25T16:17:37.061Z,94161.09
2022-12-25T16:20:04.531Z,94159.16
2022-12-25T16:22:31.859Z,94147.84
2022-12-25T16:24:58.359Z,94146.22
2022-12-25T16:27:25.276Z,94143.47
2022-12-25T16:29:52.114Z,94160.28
2022-12-25T16:32:18.639Z,94161.09
2022-12-25T16:34:45.533Z,94146.63
2022-12-25T16:37:12.017Z,94165.72
2022-12-25T16:39:38.626Z,94157.16
2022-12-25T16:42:05.302Z,94165.34
2022-12-25T16:44:31.857Z,94159.16
2022-12-25T16:46:58.464Z,94151.72
2022-12-25T16:49:25.088Z,94151.72
2022-12-25T16:51:51.673Z,94147.81
2022-12-25T16:54:18.262Z,94138.03
2022-12-25T16:56:44.767Z,94138.44
2022-12-25T16:59:11.567Z,94137.66
2022-12-25T17:01:43.156Z,94132.97
2022-12-25T17:04:10.301Z,94133.78
2022-12-25T17:06:37.438Z,94130.25
2022-12-25T17:09:04.705Z,94133.78
2022-12-25T17:11:32.295Z,94141.97
2022-12-25T17:14:02.103Z,94133.75
2022-12-25T17:16:31.347Z,94143.16
2022-12-25T17:19:04.385Z,94143.53
2022-12-25T17:21:35.096Z,94154.09
2022-12-25T17:24:03.980Z,94157.97
2022-12-25T17:26:32.202Z,94153.28
2022-12-25T17:28:58.934Z,94158.38
2022-12-25T17:31:25.453Z,94163.84
2022-12-25T17:33:52.084Z,94160.72
2022-12-25T17:36:20.950Z,94161.91
2022-12-25T17:38:48.212Z,94159.94
2022-12-25T17:41:16.552Z,94161.09
2022-12-25T17:43:45.478Z,94159.53
2022-12-25T17:46:20.636Z,94156.78
2022-12-25T17:48:47.670Z,94148.19
2022-12-25T17:51:16.527Z,94147.75
2022-12-25T17:53:45.489Z,94152.06
2022-12-25T17:56:13.061Z,94154.44
2022-12-25T17:58:39.799Z,94162.59
2022-12-25T18:01:13.671Z,94166.91
2022-12-25T18:03:40.259Z,94159.91
2022-12-25T18:06:09.259Z,94157.16
2022-12-25T18:08:39.626Z,94163.00
2022-12-25T18:11:09.475Z,94159.13
2022-12-25T18:13:37.800Z,94169.66
2022-12-25T18:16:07.106Z,94175.53
2022-12-25T18:18:34.843Z,94183.34
2022-12-25T18:21:02.166Z,94179.44
2022-12-25T18:23:29.442Z,94184.88
2022-12-25T18:25:56.396Z,94179.00
2022-12-25T18:28:23.066Z,94171.22
2022-12-25T18:30:49.638Z,94183.31
2022-12-25T18:33:16.191Z,94173.97
2022-12-25T18:35:44.108Z,94179.81
2022-12-25T18:38:11.558Z,94179.44
2022-12-25T18:40:46.994Z,94184.91
2022-12-25T18:43:14.176Z,94181.75
2022-12-25T18:45:41.611Z,94182.94
2022-12-25T18:48:10.273Z,94183.69
2022-12-25T18:50:40.109Z,94185.28
2022-12-25T18:53:07.211Z,94173.97
2022-12-25T18:55:35.570Z,94174.75
2022-12-25T18:58:02.570Z,94168.50
2022-12-25T19:00:29.167Z,94175.13
2022-12-25T19:02:58.340Z,94177.47
2022-12-25T19:05:25.636Z,94176.31
2022-12-25T19:07:52.199Z,94181.78
2022-12-25T19:10:18.817Z,94179.47
2022-12-25T19:12:45.361Z,94186.09
2022-12-25T19:15:12.227Z,94179.84
2022-12-25T19:17:38.818Z,94194.28
2022-12-25T19:20:06.180Z,94193.50
2022-12-25T19:22:32.800Z,94193.50
2022-12-25T19:24:59.361Z,94200.50
2022-12-25T19:27:25.940Z,94208.34
2022-12-25T19:29:52.691Z,94198.97
2022-12-25T19:32:19.277Z,94204.44
2022-12-25T19:34:45.825Z,94208.31
2022-12-25T19:37:12.318Z,94211.44
2022-12-25T19:39:39.769Z,94210.25
2022-12-25T19:42:06.342Z,94210.66
2022-12-25T19:44:32.892Z,94214.16
2022-12-25T19:46:59.398Z,94213.78
2022-12-25T19:49:25.911Z,94217.28
2022-12-25T19:51:52.789Z,94209.09
2022-12-25T19:54:20.703Z,94209.50
2022-12-25T19:56:48.559Z,94210.25
2022-12-25T19:59:15.933Z,94208.31
2022-12-25T20:01:43.098Z,94216.13
2022-12-25T20:04:10.354Z,94212.63
2022-12-25T20:06:39.609Z,94213.78
2022-12-25T20:09:15.272Z,94212.63
2022-12-25T20:11:43.074Z,94219.59
2022-12-25T20:14:12.697Z,94208.69
2022-12-25T20:16:40.536Z,94208.31
2022-12-25T20:19:07.505Z,94212.97
2022-12-25T20:21:34.450Z,94217.66
2022-12-25T20:24:00.978Z,94214.53
2022-12-25T20:26:30.694Z,94216.13
2022-12-25T20:28:58.133Z,94230.16
2022-12-25T20:31:27.550Z,94223.91
2022-12-25T20:33:59.638Z,94226.22
2022-12-25T20:36:31.210Z,94231.31
2022-12-25T20:39:02.782Z,94241.84
2022-12-25T20:41:30.006Z,94244.19
2022-12-25T20:43:57.751Z,94242.59
2022-12-25T20:46:25.507Z,94243.38
2022-12-25T20:48:52.846Z,94246.88
2022-12-25T20:51:22.578Z,94244.16
2022-12-25T20:53:50.096Z,94249.59
2022-12-25T20:56:18.757Z,94251.16
2022-12-25T20:58:45.442Z,94258.94
2022-12-25T21:01:15.842Z,94243.72
2022-12-25T21:03:43.384Z,94252.69
2022-12-25T21:06:10.600Z,94258.91
2022-12-25T21:08:37.843Z,94254.97
2022-12-25T21:11:08.378Z,94254.19
2022-12-25T21:13:41.199Z,94251.81
2022-12-25T21:16:11.143Z,94240.91
2022-12-25T21:18:38.409Z,94240.19
2022-12-25T21:21:07.328Z,94241.72
2022-12-25T21:23:36.082Z,94253.75
2022-12-25T21:26:29.670Z,94254.44
2022-12-25T21:29:00.052Z,94254.75
2022-12-25T21:31:26.732Z,94255.47
2022-12-25T21:33:55.318Z,94251.59
2022-12-25T21:36:27.205Z,94253.94
2022-12-25T21:39:01.035Z,94250.81
2022-12-25T21:41:30.480Z,94244.56
2022-12-25T21:43:57.197Z,94244.91
2022-12-25T21:46:24.742Z,94249.91
2022-12-25T21:48:51.656Z,94253.38
2022-12-25T21:51:40.116Z,94258.41
2022-12-25T21:54:07.462Z,94260.69
2022-12-25T21:56:43.051Z,94271.94
2022-12-25T21:59:13.334Z,94270.38
2022-12-25T22:01:40.133Z,94277.38
2022-12-25T22:04:08.498Z,94270.75
2022-12-25T22:06:54.355Z,94275.38
2022-12-25T22:09:21.761Z,94278.47
2022-12-25T22:12:07.272Z,94276.94
2022-12-25T22:14:57.015Z,94277.63
2022-12-25T22:17:45.475Z,94280.44
2022-12-25T22:20:16.749Z,94276.53
2022-12-25T22:22:43.391Z,94278.84
2022-12-25T22:25:10.819Z,94269.53
2022-12-25T22:27:39.381Z,94282.91
2022-12-25T22:30:09.122Z,94282.50
2022-12-25T22:32:36.067Z,94275.13
2022-12-25T22:35:02.944Z,94272.09
2022-12-25T22:37:29.779Z,94284.69
2022-12-25T22:39:56.305Z,94270.75
2022-12-25T22:42:22.918Z,94280.53
2022-12-25T22:44:49.462Z,94278.66
2022-12-25T22:47:16.063Z,94289.56
2022-12-25T22:49:42.660Z,94283.28
2022-12-25T22:52:09.817Z,94288.31
2022-12-25T22:54:37.092Z,94287.09
2022-12-25T22:57:04.132Z,94281.63
2022-12-25T22:59:30.898Z,94293.25
2022-12-25T23:01:57.603Z,94286.25
2022-12-25T23:04:26.036Z,94292.84
2022-12-25T23:06:52.564Z,94286.19
2022-12-25T23:09:24.887Z,94284.19
2022-12-25T23:11:51.607Z,94289.59
2022-12-25T23:14:36.692Z,94290.38
2022-12-25T23:17:03.244Z,94304.41
2022-12-25T23:19:48.361Z,94294.31
2022-12-25T23:22:34.529Z,94304.00
2022-12-25T23:25:19.646Z,94312.66
2022-12-25T23:27:46.378Z,94316.88
2022-12-25T23:30:15.535Z,94317.59
2022-12-25T23:32:44.493Z,94309.03
2022-12-25T23:35:11.762Z,94310.97
2022-12-25T23:37:38.578Z,94324.13
2022-12-25T23:40:05.879Z,94312.81
2022-12-25T23:42:32.571Z,94319.69
2022-12-25T23:44:59.112Z,94325.91
2022-12-25T23:47:25.682Z,94340.22
2022-12-25T23:49:52.389Z,94332.13
2022-12-25T23:52:18.961Z,94330.63
2022-12-25T23:54:45.518Z,94326.44
2022-12-25T23:57:16.578Z,94321.78
2022-12-25T23:59:43.221Z,94312.50
